createdAt,value
2022-08-10T00:00:28.888Z,20.30
2022-08-10T00:02:58.779Z,20.30
2022-08-10T00:05:29.205Z,20.20
2022-08-10T00:08:11.821Z,20.20
2022-08-10T00:10:51.620Z,20.20
2022-08-10T00:13:19.479Z,20.20
2022-08-10T00:15:54.124Z,20.20
2022-08-10T00:18:34.310Z,20.10
2022-08-10T00:21:07.662Z,20.10
2022-08-10T00:23:36.743Z,20.10
2022-08-10T00:26:05.782Z,20.00
2022-08-10T00:28:34.015Z,20.00
2022-08-10T00:31:02.250Z,19.90
2022-08-10T00:33:30.058Z,20.00
2022-08-10T00:35:57.823Z,20.00
2022-08-10T00:38:26.935Z,19.90
2022-08-10T00:40:54.701Z,19.90
2022-08-10T00:43:23.404Z,19.90
2022-08-10T00:45:59.428Z,19.90
2022-08-10T00:48:29.563Z,19.90
2022-08-10T00:50:58.400Z,19.90
2022-08-10T00:53:27.722Z,19.80
2022-08-10T00:57:12.542Z,19.80
2022-08-10T00:58:44.990Z,19.70
2022-08-10T01:02:07.853Z,19.70
2022-08-10T01:04:40.027Z,19.70
2022-08-10T01:07:04.632Z,19.70
2022-08-10T01:09:40.341Z,19.60
2022-08-10T01:12:40.049Z,19.60
2022-08-10T01:15:06.479Z,19.60
2022-08-10T01:17:50.127Z,19.60
2022-08-10T01:20:30.079Z,19.60
2022-08-10T01:23:42.398Z,19.50
2022-08-10T01:26:50.258Z,19.50
2022-08-10T01:29:42.836Z,19.50
2022-08-10T01:32:14.386Z,19.40
2022-08-10T01:34:50.429Z,19.40
2022-08-10T01:37:22.995Z,19.40
2022-08-10T01:39:56.976Z,19.40
2022-08-10T01:42:26.116Z,19.30
2022-08-10T01:44:58.302Z,19.30
2022-08-10T01:47:48.015Z,19.30
2022-08-10T01:50:23.926Z,19.20
2022-08-10T01:52:54.237Z,19.10
2022-08-10T01:55:23.530Z,19.10
2022-08-10T01:57:53.758Z,19.10
2022-08-10T02:00:23.207Z,19.10
2022-08-10T02:02:52.530Z,19.10
2022-08-10T02:05:22.999Z,19.00
2022-08-10T02:07:51.516Z,19.00
2022-08-10T02:10:20.779Z,19.00
2022-08-10T02:12:50.508Z,19.00
2022-08-10T02:15:22.816Z,18.90
2022-08-10T02:18:00.250Z,18.90
2022-08-10T02:20:34.398Z,18.90
2022-08-10T02:23:05.412Z,18.90
2022-08-10T02:25:40.612Z,18.80
2022-08-10T02:28:26.915Z,18.80
2022-08-10T02:30:58.571Z,18.70
2022-08-10T02:33:27.773Z,18.60
2022-08-10T02:36:00.925Z,18.60
2022-08-10T02:45:13.076Z,18.40
2022-08-10T02:45:19.471Z,18.40
2022-08-10T02:47:51.942Z,18.30
2022-08-10T02:50:27.440Z,18.20
2022-08-10T02:53:02.310Z,18.20
2022-08-10T02:55:35.330Z,18.10
2022-08-10T02:58:16.813Z,18.10
2022-08-10T03:00:52.715Z,18.10
2022-08-10T03:03:25.306Z,18.00
2022-08-10T03:05:57.699Z,18.00
2022-08-10T03:08:29.383Z,17.90
2022-08-10T03:11:00.329Z,17.90
2022-08-10T03:13:29.379Z,17.80
2022-08-10T03:15:58.252Z,17.80
2022-08-10T03:18:27.827Z,17.70
2022-08-10T03:20:57.570Z,17.70
2022-08-10T03:23:30.008Z,17.60
2022-08-10T03:26:00.083Z,17.60
2022-08-10T03:28:30.137Z,17.60
2022-08-10T03:30:59.357Z,17.50
2022-08-10T03:33:31.934Z,17.50
2022-08-10T03:36:43.021Z,17.40
2022-08-10T03:38:48.633Z,17.40
2022-08-10T03:41:20.550Z,17.40
2022-08-10T03:43:50.579Z,17.30
2022-08-10T03:46:22.266Z,17.30
2022-08-10T03:48:54.833Z,17.30
2022-08-10T03:51:23.986Z,17.20
2022-08-10T03:54:03.473Z,17.20
2022-08-10T03:56:37.681Z,17.20
2022-08-10T03:59:07.708Z,17.10
2022-08-10T04:02:43.940Z,17.10
2022-08-10T04:04:26.043Z,16.90
2022-08-10T04:06:56.091Z,17.00
2022-08-10T04:09:25.010Z,17.00
2022-08-10T04:12:11.570Z,16.90
2022-08-10T04:14:49.902Z,16.90
2022-08-10T04:18:01.192Z,16.90
2022-08-10T04:20:20.205Z,16.90
2022-08-10T04:22:51.732Z,16.90
2022-08-10T04:25:20.493Z,17.10
2022-08-10T04:27:49.039Z,17.30
2022-08-10T04:30:17.319Z,17.40
2022-08-10T04:32:48.430Z,17.60
2022-08-10T04:35:19.844Z,17.60
2022-08-10T04:37:50.456Z,17.70
2022-08-10T04:40:28.637Z,17.80
2022-08-10T04:43:01.339Z,17.80
2022-08-10T04:45:47.537Z,17.90
2022-08-10T04:48:42.173Z,17.90
2022-08-10T04:51:15.970Z,17.90
2022-08-10T04:54:04.559Z,18.00
2022-08-10T04:56:36.241Z,18.00
2022-08-10T04:59:10.038Z,18.00
2022-08-10T05:02:22.542Z,18.00
2022-08-10T05:04:37.110Z,18.10
2022-08-10T05:07:16.043Z,18.20
2022-08-10T05:10:01.016Z,18.10
2022-08-10T05:12:36.478Z,18.10
2022-08-10T05:15:07.050Z,17.90
2022-08-10T05:17:35.413Z,17.90
2022-08-10T05:20:06.730Z,17.80
2022-08-10T05:22:40.377Z,17.80
2022-08-10T05:25:10.937Z,17.70
2022-08-10T05:27:39.412Z,17.60
2022-08-10T05:30:08.516Z,17.60
2022-08-10T05:32:57.717Z,17.60
2022-08-10T05:35:26.193Z,17.70
2022-08-10T05:38:13.461Z,17.70
2022-08-10T05:40:47.221Z,17.70
2022-08-10T05:43:19.417Z,17.70
2022-08-10T05:46:16.949Z,17.70
2022-08-10T05:48:56.457Z,17.80
2022-08-10T05:51:25.747Z,17.80
2022-08-10T05:54:02.116Z,17.90
2022-08-10T05:56:55.378Z,17.90
2022-08-10T06:00:33.504Z,18.00
2022-08-10T06:02:33.508Z,18.00
2022-08-10T06:05:01.186Z,18.10
2022-08-10T06:07:31.129Z,18.10
2022-08-10T06:10:03.927Z,18.20
2022-08-10T06:12:55.353Z,18.30
2022-08-10T06:15:50.881Z,18.30
2022-08-10T06:18:41.650Z,18.40
2022-08-10T06:21:10.348Z,18.50
2022-08-10T06:23:38.929Z,18.60
2022-08-10T06:26:36.707Z,18.70
2022-08-10T06:29:08.851Z,18.80
2022-08-10T06:31:47.678Z,18.90
2022-08-10T06:34:21.069Z,19.00
2022-08-10T06:36:49.591Z,19.10
2022-08-10T06:39:32.964Z,19.20
2022-08-10T06:45:08.601Z,19.40
2022-08-10T06:47:44.464Z,19.50
2022-08-10T06:50:45.486Z,19.60
2022-08-10T06:53:10.891Z,19.70
2022-08-10T06:55:55.200Z,19.70
2022-08-10T06:58:34.459Z,19.80
2022-08-10T07:01:04.868Z,20.00
2022-08-10T07:03:37.550Z,20.10
2022-08-10T07:06:07.331Z,20.20
2022-08-10T07:08:37.648Z,20.40
2022-08-10T07:11:11.763Z,20.40
2022-08-10T07:14:14.324Z,20.60
2022-08-10T07:16:32.667Z,20.70
2022-08-10T07:19:03.449Z,20.90
2022-08-10T07:21:36.012Z,21.00
2022-08-10T07:24:08.039Z,21.20
2022-08-10T07:26:38.121Z,21.40
2022-08-10T07:29:08.560Z,21.50
2022-08-10T07:31:58.419Z,21.70
2022-08-10T07:34:29.139Z,21.90
2022-08-10T07:37:02.644Z,22.00
2022-08-10T07:40:01.937Z,22.10
2022-08-10T07:42:22.105Z,22.20
2022-08-10T07:44:52.112Z,22.40
2022-08-10T07:47:46.219Z,22.50
2022-08-10T07:53:18.156Z,22.80
2022-08-10T07:56:05.895Z,23.00
2022-08-10T07:58:40.283Z,23.20
2022-08-10T08:01:19.022Z,23.30
2022-08-10T08:04:10.210Z,23.50
2022-08-10T08:06:38.169Z,23.60
2022-08-10T08:09:06.354Z,23.80
2022-08-10T08:11:34.715Z,23.90
2022-08-10T09:50:09.948Z,27.70
2022-08-10T09:53:00.305Z,27.80
2022-08-10T09:56:17.360Z,27.80
2022-08-10T09:58:41.422Z,27.90
2022-08-10T10:01:56.309Z,28.00
2022-08-10T10:04:15.128Z,28.10
2022-08-10T10:06:52.868Z,28.20
2022-08-10T10:09:30.346Z,28.20
2022-08-10T10:12:13.746Z,28.30
2022-08-10T10:15:24.115Z,28.30
2022-08-10T10:18:05.793Z,28.40
2022-08-10T10:20:40.271Z,28.50
2022-08-10T10:23:20.096Z,28.50
2022-08-10T10:26:01.666Z,28.60
2022-08-10T10:31:42.859Z,28.80
2022-08-10T10:34:18.849Z,28.90
2022-08-10T10:36:47.882Z,29.00
2022-08-10T10:39:24.118Z,29.00
2022-08-10T10:42:04.689Z,29.10
2022-08-10T10:44:46.291Z,29.10
2022-08-10T10:47:35.939Z,29.10
2022-08-10T10:50:10.301Z,29.20
2022-08-10T10:56:14.689Z,29.30
2022-08-10T10:58:49.800Z,29.30
2022-08-10T11:01:33.762Z,29.40
2022-08-10T11:04:16.893Z,29.50
2022-08-10T11:06:53.649Z,29.60
2022-08-10T11:10:03.770Z,29.70
2022-08-10T11:12:39.974Z,29.70
2022-08-10T11:15:23.004Z,29.80
2022-08-10T11:17:57.388Z,29.80
2022-08-10T11:20:33.101Z,29.90
2022-08-10T11:23:09.222Z,29.90
2022-08-10T11:25:40.826Z,30.00
2022-08-10T11:28:17.705Z,30.00
2022-08-10T11:30:50.960Z,30.10
2022-08-10T11:33:32.443Z,30.10
2022-08-10T11:36:04.790Z,30.10
2022-08-10T11:38:57.986Z,30.20
2022-08-10T11:42:09.752Z,30.30
2022-08-10T11:44:32.978Z,30.40
2022-08-10T11:47:06.382Z,30.50
2022-08-10T11:49:39.003Z,30.50
2022-08-10T11:58:31.821Z,30.60
2022-08-10T12:01:07.567Z,30.70
2022-08-10T12:03:38.495Z,30.70
2022-08-10T12:06:13.168Z,30.80
2022-08-10T12:10:04.664Z,30.90
2022-08-10T12:11:32.618Z,30.90
2022-08-10T12:17:09.149Z,31.00
2022-08-10T12:19:59.884Z,31.00
2022-08-10T12:22:35.154Z,31.10
2022-08-10T12:25:08.289Z,31.20
2022-08-10T12:27:41.466Z,31.20
2022-08-10T12:30:12.160Z,31.20
2022-08-10T12:32:49.791Z,31.20
2022-08-10T12:35:26.532Z,31.20
2022-08-10T12:38:04.865Z,31.30
2022-08-10T12:40:38.450Z,31.30
2022-08-10T12:44:04.684Z,31.30
2022-08-10T12:46:08.151Z,31.30
2022-08-10T12:48:44.906Z,31.40
2022-08-10T12:51:19.530Z,31.40
2022-08-10T12:56:52.261Z,31.40
2022-08-10T12:59:24.801Z,31.40
2022-08-10T13:02:06.187Z,31.50
2022-08-10T13:04:43.364Z,31.50
2022-08-10T13:08:25.612Z,31.60
2022-08-10T13:13:02.530Z,31.50
2022-08-10T13:15:49.422Z,31.50
2022-08-10T13:18:26.018Z,31.60
2022-08-10T13:21:01.071Z,31.60
2022-08-10T13:23:33.062Z,31.60
2022-08-10T13:26:02.530Z,31.60
2022-08-10T13:28:45.228Z,31.60
2022-08-10T13:31:17.611Z,31.50
2022-08-10T13:34:38.864Z,31.50
2022-08-10T13:36:44.558Z,31.50
2022-08-10T13:39:14.096Z,31.50
2022-08-10T13:41:45.841Z,31.60
2022-08-10T13:44:18.578Z,31.60
2022-08-10T13:46:51.699Z,31.50
2022-08-10T13:49:21.320Z,31.60
2022-08-10T13:51:53.720Z,31.60
2022-08-10T13:54:28.762Z,31.60
2022-08-10T13:56:57.728Z,31.70
2022-08-10T14:00:36.703Z,31.60
2022-08-10T14:02:25.427Z,31.60
2022-08-10T14:04:55.852Z,31.60
2022-08-10T14:07:27.013Z,31.60
2022-08-10T14:10:01.280Z,31.70
2022-08-10T14:12:41.041Z,31.70
2022-08-10T14:15:14.309Z,31.70
2022-08-10T14:17:45.051Z,31.60
2022-08-10T14:20:19.284Z,31.60
2022-08-10T14:22:50.767Z,31.60
2022-08-10T14:25:18.662Z,31.60
2022-08-10T14:28:02.802Z,31.60
2022-08-10T14:30:33.833Z,31.60
2022-08-10T14:33:04.740Z,31.60
2022-08-10T14:36:19.325Z,31.60
2022-08-10T14:38:30.893Z,31.60
2022-08-10T14:41:05.121Z,31.60
2022-08-10T14:43:39.576Z,31.50
2022-08-10T14:46:11.314Z,31.50
2022-08-10T14:48:41.728Z,31.60
2022-08-10T14:51:15.814Z,31.60
2022-08-10T14:56:49.061Z,31.60
2022-08-10T14:59:18.577Z,31.60
2022-08-10T15:02:00.204Z,31.60
2022-08-10T15:04:39.401Z,31.60
2022-08-10T15:07:12.800Z,31.60
2022-08-10T15:10:01.017Z,31.70
2022-08-10T15:12:34.186Z,31.70
2022-08-10T15:15:04.318Z,31.70
2022-08-10T15:17:35.846Z,31.70
2022-08-10T15:20:14.277Z,31.70
2022-08-10T15:22:50.285Z,31.70
2022-08-10T15:25:25.572Z,31.70
2022-08-10T15:27:57.809Z,31.70
2022-08-10T15:34:05.326Z,31.60
2022-08-10T15:37:02.061Z,31.70
2022-08-10T15:40:26.699Z,31.70
2022-08-10T15:42:36.406Z,31.70
2022-08-10T15:45:05.162Z,31.70
2022-08-10T15:47:45.911Z,31.80
2022-08-10T15:50:19.758Z,31.90
2022-08-10T15:53:01.223Z,32.10
2022-08-10T15:55:42.852Z,32.10
2022-08-10T15:58:19.825Z,32.00
2022-08-10T16:00:59.392Z,31.90
2022-08-10T16:03:33.409Z,31.70
2022-08-10T16:06:03.441Z,31.60
2022-08-10T16:08:57.234Z,31.40
2022-08-10T16:11:41.456Z,31.20
2022-08-10T16:14:17.059Z,31.00
2022-08-10T16:16:50.283Z,30.80
2022-08-10T16:19:23.974Z,30.70
2022-08-10T16:22:00.694Z,30.60
2022-08-10T16:27:38.534Z,30.30
2022-08-10T16:30:08.821Z,30.10
2022-08-10T16:32:39.243Z,29.90
2022-08-10T16:35:11.175Z,29.80
2022-08-10T16:37:58.857Z,29.70
2022-08-10T16:40:29.579Z,29.60
2022-08-10T16:45:59.397Z,29.40
2022-08-10T16:48:49.704Z,29.30
2022-08-10T16:51:21.615Z,29.20
2022-08-10T16:54:24.799Z,29.10
2022-08-10T16:57:00.032Z,29.00
2022-08-10T16:59:30.360Z,28.90
2022-08-10T17:02:01.278Z,28.90
2022-08-10T17:04:31.006Z,28.80
2022-08-10T17:07:00.705Z,28.80
2022-08-10T17:09:30.151Z,28.70
2022-08-10T17:12:00.257Z,28.60
2022-08-10T17:14:29.931Z,28.60
2022-08-10T17:17:01.218Z,28.50
2022-08-10T17:19:32.931Z,28.50
2022-08-10T17:22:04.989Z,28.40
2022-08-10T17:24:36.086Z,28.40
2022-08-10T17:28:05.487Z,28.30
2022-08-10T17:30:04.257Z,28.20
2022-08-10T17:32:43.751Z,28.20
2022-08-10T17:35:22.989Z,28.10
2022-08-10T17:37:56.299Z,28.10
2022-08-10T17:40:27.847Z,28.00
2022-08-10T17:42:56.146Z,28.00
2022-08-10T17:45:48.173Z,27.90
2022-08-10T17:48:17.313Z,27.90
2022-08-10T17:51:18.189Z,27.80
2022-08-10T17:53:48.990Z,27.80
2022-08-10T17:56:17.631Z,27.70
2022-08-10T17:58:50.842Z,27.60
2022-08-10T18:01:40.653Z,27.50
2022-08-10T18:04:16.076Z,27.50
2022-08-10T18:06:44.819Z,27.40
2022-08-10T18:09:25.130Z,27.40
2022-08-10T18:12:00.151Z,27.30
2022-08-10T18:14:31.682Z,27.30
2022-08-10T18:17:01.032Z,27.20
2022-08-10T18:19:33.852Z,27.10
2022-08-10T18:22:02.504Z,27.10
2022-08-10T18:24:32.540Z,27.00
2022-08-10T18:27:03.584Z,27.00
2022-08-10T18:29:32.147Z,26.90
2022-08-10T18:32:02.572Z,26.90
2022-08-10T18:34:35.084Z,26.90
2022-08-10T18:37:06.182Z,26.90
2022-08-10T18:39:38.408Z,26.70
2022-08-10T18:42:11.306Z,26.70
2022-08-10T18:44:42.843Z,26.60
2022-08-10T18:47:15.003Z,26.50
2022-08-10T18:50:01.932Z,26.50
2022-08-10T18:52:33.567Z,26.40
2022-08-10T18:55:46.254Z,26.30
2022-08-10T18:58:49.817Z,26.30
2022-08-10T19:01:49.531Z,26.20
2022-08-10T19:04:28.145Z,26.10
2022-08-10T19:07:23.657Z,26.00
2022-08-10T19:10:03.390Z,26.00
2022-08-10T19:12:43.287Z,25.90
2022-08-10T19:15:22.271Z,25.80
2022-08-10T19:18:05.615Z,25.70
2022-08-10T19:20:42.090Z,25.70
2022-08-10T19:23:24.383Z,25.60
2022-08-10T19:26:41.900Z,25.50
2022-08-10T19:28:58.540Z,25.50
2022-08-10T19:31:41.939Z,25.40
2022-08-10T19:34:30.935Z,25.30
2022-08-10T19:37:09.465Z,25.30
2022-08-10T19:39:59.684Z,25.20
2022-08-10T19:42:34.945Z,25.10
2022-08-10T19:45:56.076Z,25.10
2022-08-10T19:48:11.912Z,25.00
2022-08-10T19:50:45.140Z,24.90
2022-08-10T19:53:51.117Z,24.90
2022-08-10T19:56:55.870Z,24.80
2022-08-10T20:00:17.274Z,24.80
2022-08-10T20:03:08.117Z,24.70
2022-08-10T20:06:18.758Z,24.70
2022-08-10T20:08:47.179Z,24.60
2022-08-10T20:11:45.819Z,24.60
2022-08-10T20:14:22.343Z,24.60
2022-08-10T20:16:53.500Z,24.50
2022-08-10T20:19:53.530Z,24.50
2022-08-10T20:22:29.199Z,24.50
2022-08-10T20:25:02.355Z,24.40
2022-08-10T20:27:57.621Z,24.30
2022-08-10T20:30:30.002Z,24.30
2022-08-10T20:33:05.167Z,24.20
2022-08-10T20:35:43.052Z,24.10
2022-08-10T20:41:22.687Z,24.00
2022-08-10T20:44:06.052Z,24.00
2022-08-10T20:46:42.489Z,23.90
2022-08-10T20:49:21.665Z,23.90
2022-08-10T20:51:58.746Z,23.80
2022-08-10T20:54:34.800Z,23.80
2022-08-10T20:57:55.567Z,23.70
2022-08-10T21:00:13.739Z,23.70
2022-08-10T21:03:09.108Z,23.60
2022-08-10T21:05:55.413Z,23.60
2022-08-10T21:08:36.730Z,23.50
2022-08-10T21:11:12.390Z,23.40
2022-08-10T21:13:57.984Z,23.30
2022-08-10T21:17:04.532Z,23.30
2022-08-10T21:20:01.743Z,23.20
2022-08-10T21:22:35.311Z,23.20
2022-08-10T21:25:06.407Z,23.10
2022-08-10T21:28:03.364Z,23.10
2022-08-10T21:30:54.291Z,23.00
2022-08-10T21:33:35.753Z,23.00
2022-08-10T21:36:10.436Z,23.00
2022-08-10T21:38:51.538Z,22.90
2022-08-10T21:41:57.571Z,22.90
2022-08-10T21:45:10.237Z,22.80
2022-08-10T21:48:16.589Z,22.70
2022-08-10T21:51:16.476Z,22.70
2022-08-10T21:54:18.103Z,22.70
2022-08-10T21:57:12.419Z,22.60
2022-08-10T22:00:05.363Z,22.60
2022-08-10T22:02:57.662Z,22.50
2022-08-10T22:09:03.812Z,22.40
2022-08-10T22:15:09.754Z,22.30
2022-08-10T22:18:05.044Z,22.20
2022-08-10T22:20:53.598Z,22.10
2022-08-10T22:24:35.941Z,22.00
2022-08-10T22:27:57.271Z,21.90
2022-08-10T22:31:24.399Z,21.80
2022-08-10T22:34:09.046Z,21.80
2022-08-10T22:37:11.446Z,21.60
2022-08-10T22:40:16.695Z,21.50
2022-08-10T22:43:09.848Z,21.40
2022-08-10T22:46:03.375Z,21.30
2022-08-10T22:48:51.897Z,21.20
2022-08-10T22:51:23.602Z,21.10
2022-08-10T22:54:30.491Z,21.10
2022-08-10T22:57:18.386Z,21.00
2022-08-10T22:59:49.171Z,20.90
2022-08-10T23:02:31.446Z,20.80
2022-08-10T23:05:06.496Z,20.80
2022-08-10T23:07:42.165Z,20.70
2022-08-10T23:10:13.213Z,20.60
2022-08-10T23:12:44.838Z,20.60
2022-08-10T23:15:40.301Z,20.60
2022-08-10T23:18:28.874Z,20.50
2022-08-10T23:20:57.837Z,20.50
2022-08-10T23:23:28.676Z,20.40
2022-08-10T23:25:59.831Z,20.40
2022-08-10T23:28:38.277Z,20.40
2022-08-10T23:31:13.115Z,20.30
2022-08-10T23:33:42.905Z,20.30
2022-08-10T23:36:33.632Z,20.20
2022-08-10T23:39:25.275Z,20.20
2022-08-10T23:41:58.289Z,20.20
2022-08-10T23:44:33.521Z,20.10
2022-08-10T23:47:04.864Z,20.00
2022-08-10T23:49:35.835Z,20.00
2022-08-10T23:52:11.459Z,19.90
2022-08-10T23:54:45.647Z,19.90
2022-08-10T23:57:17.990Z,19.80
2022-08-10T23:59:52.990Z,19.80
